sensor_id;sensor_type;location;lat;lon;timestamp;P1;durP1;ratioP1;P2;durP2;ratioP2
55254;SDS011;41118;44.634;11.182;2023-03-09T00:00:50;2.20;;;0.65;;
55254;SDS011;41118;44.634;11.182;2023-03-09T00:03:16;6.57;;;0.60;;
55254;SDS011;41118;44.634;11.182;2023-03-09T00:05:43;5.13;;;0.85;;
55254;SDS011;41118;44.634;11.182;2023-03-09T00:08:09;4.60;;;0.70;;
55254;SDS011;41118;44.634;11.182;2023-03-09T00:10:39;2.63;;;0.60;;
55254;SDS011;41118;44.634;11.182;2023-03-09T00:13:05;3.42;;;0.80;;
55254;SDS011;41118;44.634;11.182;2023-03-09T00:15:32;4.13;;;0.57;;
55254;SDS011;41118;44.634;11.182;2023-03-09T00:17:58;2.88;;;0.50;;
55254;SDS011;41118;44.634;11.182;2023-03-09T00:20:24;7.20;;;0.50;;
55254;SDS011;41118;44.634;11.182;2023-03-09T00:22:51;4.18;;;0.95;;
55254;SDS011;41118;44.634;11.182;2023-03-09T00:25:18;3.65;;;0.60;;
55254;SDS011;41118;44.634;11.182;2023-03-09T00:27:46;5.57;;;1.45;;
55254;SDS011;41118;44.634;11.182;2023-03-09T00:30:13;6.88;;;0.50;;
55254;SDS011;41118;44.634;11.182;2023-03-09T00:32:39;3.00;;;0.68;;
55254;SDS011;41118;44.634;11.182;2023-03-09T00:35:05;5.38;;;0.80;;
55254;SDS011;41118;44.634;11.182;2023-03-09T00:37:33;5.35;;;0.60;;
55254;SDS011;41118;44.634;11.182;2023-03-09T00:39:59;5.55;;;0.80;;
55254;SDS011;41118;44.634;11.182;2023-03-09T00:42:26;5.10;;;1.20;;
55254;SDS011;41118;44.634;11.182;2023-03-09T00:44:52;6.85;;;1.75;;
55254;SDS011;41118;44.634;11.182;2023-03-09T00:47:18;6.72;;;1.58;;
55254;SDS011;41118;44.634;11.182;2023-03-09T00:49:54;7.57;;;2.03;;
55254;SDS011;41118;44.634;11.182;2023-03-09T00:52:20;7.15;;;0.85;;
55254;SDS011;41118;44.634;11.182;2023-03-09T00:54:46;5.57;;;1.48;;
55254;SDS011;41118;44.634;11.182;2023-03-09T00:57:14;5.18;;;1.00;;
55254;SDS011;41118;44.634;11.182;2023-03-09T00:59:43;4.10;;;1.20;;
55254;SDS011;41118;44.634;11.182;2023-03-09T01:02:09;4.95;;;1.30;;
55254;SDS011;41118;44.634;11.182;2023-03-09T01:04:36;8.10;;;1.00;;
55254;SDS011;41118;44.634;11.182;2023-03-09T01:07:03;2.40;;;0.60;;
55254;SDS011;41118;44.634;11.182;2023-03-09T01:09:29;3.65;;;0.82;;
55254;SDS011;41118;44.634;11.182;2023-03-09T01:11:55;4.65;;;1.30;;
55254;SDS011;41118;44.634;11.182;2023-03-09T01:14:22;5.05;;;1.48;;
55254;SDS011;41118;44.634;11.182;2023-03-09T01:16:48;7.55;;;0.95;;
55254;SDS011;41118;44.634;11.182;2023-03-09T01:19:14;4.00;;;1.02;;
55254;SDS011;41118;44.634;11.182;2023-03-09T01:21:40;4.18;;;2.08;;
55254;SDS011;41118;44.634;11.182;2023-03-09T01:24:07;5.47;;;1.02;;
55254;SDS011;41118;44.634;11.182;2023-03-09T01:26:33;5.43;;;0.90;;
55254;SDS011;41118;44.634;11.182;2023-03-09T01:28:59;6.22;;;1.58;;
55254;SDS011;41118;44.634;11.182;2023-03-09T01:31:27;8.57;;;1.70;;
55254;SDS011;41118;44.634;11.182;2023-03-09T01:33:53;3.63;;;1.35;;
55254;SDS011;41118;44.634;11.182;2023-03-09T01:36:19;7.05;;;1.02;;
55254;SDS011;41118;44.634;11.182;2023-03-09T01:38:45;5.15;;;1.05;;
55254;SDS011;41118;44.634;11.182;2023-03-09T01:41:12;8.32;;;0.82;;
55254;SDS011;41118;44.634;11.182;2023-03-09T01:43:39;6.68;;;0.85;;
55254;SDS011;41118;44.634;11.182;2023-03-09T01:48:53;4.85;;;1.20;;
55254;SDS011;41118;44.634;11.182;2023-03-09T01:51:21;4.60;;;1.05;;
55254;SDS011;41118;44.634;11.182;2023-03-09T01:53:47;4.38;;;0.68;;
55254;SDS011;41118;44.634;11.182;2023-03-09T01:56:15;7.03;;;0.88;;
55254;SDS011;41118;44.634;11.182;2023-03-09T01:58:42;4.82;;;0.80;;
55254;SDS011;41118;44.634;11.182;2023-03-09T02:01:09;2.70;;;0.80;;
55254;SDS011;41118;44.634;11.182;2023-03-09T02:03:36;4.20;;;0.70;;
55254;SDS011;41118;44.634;11.182;2023-03-09T02:08:30;6.80;;;1.00;;
55254;SDS011;41118;44.634;11.182;2023-03-09T02:10:58;4.60;;;0.68;;
55254;SDS011;41118;44.634;11.182;2023-03-09T02:13:26;5.18;;;1.13;;
55254;SDS011;41118;44.634;11.182;2023-03-09T02:15:53;10.95;;;2.05;;
55254;SDS011;41118;44.634;11.182;2023-03-09T02:18:19;4.68;;;1.55;;
55254;SDS011;41118;44.634;11.182;2023-03-09T02:20:55;5.28;;;0.85;;
55254;SDS011;41118;44.634;11.182;2023-03-09T02:23:32;5.95;;;1.23;;
55254;SDS011;41118;44.634;11.182;2023-03-09T02:26:11;2.45;;;0.80;;
55254;SDS011;41118;44.634;11.182;2023-03-09T02:28:39;3.58;;;0.90;;
55254;SDS011;41118;44.634;11.182;2023-03-09T02:31:05;5.25;;;0.55;;
55254;SDS011;41118;44.634;11.182;2023-03-09T02:33:32;6.30;;;1.48;;
55254;SDS011;41118;44.634;11.182;2023-03-09T02:35:59;7.55;;;1.65;;
55254;SDS011;41118;44.634;11.182;2023-03-09T02:38:26;3.50;;;0.82;;
55254;SDS011;41118;44.634;11.182;2023-03-09T02:40:53;8.68;;;1.08;;
55254;SDS011;41118;44.634;11.182;2023-03-09T02:43:22;4.22;;;0.73;;
55254;SDS011;41118;44.634;11.182;2023-03-09T02:45:49;3.38;;;1.30;;
55254;SDS011;41118;44.634;11.182;2023-03-09T02:48:15;5.15;;;1.73;;
55254;SDS011;41118;44.634;11.182;2023-03-09T02:50:42;2.70;;;0.60;;
55254;SDS011;41118;44.634;11.182;2023-03-09T02:53:09;2.25;;;0.82;;
55254;SDS011;41118;44.634;11.182;2023-03-09T02:55:35;4.30;;;0.95;;
55254;SDS011;41118;44.634;11.182;2023-03-09T02:58:01;5.45;;;0.82;;
55254;SDS011;41118;44.634;11.182;2023-03-09T03:00:27;5.22;;;1.50;;
55254;SDS011;41118;44.634;11.182;2023-03-09T03:02:53;2.65;;;0.73;;
55254;SDS011;41118;44.634;11.182;2023-03-09T03:05:20;4.10;;;0.82;;
55254;SDS011;41118;44.634;11.182;2023-03-09T03:07:46;7.90;;;1.90;;
55254;SDS011;41118;44.634;11.182;2023-03-09T03:10:13;3.17;;;0.73;;
55254;SDS011;41118;44.634;11.182;2023-03-09T03:12:39;2.80;;;0.68;;
55254;SDS011;41118;44.634;11.182;2023-03-09T03:15:06;2.83;;;0.70;;
55254;SDS011;41118;44.634;11.182;2023-03-09T03:17:32;3.90;;;0.80;;
55254;SDS011;41118;44.634;11.182;2023-03-09T03:19:58;5.85;;;1.40;;
55254;SDS011;41118;44.634;11.182;2023-03-09T03:22:24;4.05;;;0.80;;
55254;SDS011;41118;44.634;11.182;2023-03-09T03:24:50;2.22;;;1.23;;
55254;SDS011;41118;44.634;11.182;2023-03-09T03:27:16;5.45;;;1.42;;
55254;SDS011;41118;44.634;11.182;2023-03-09T03:29:42;3.50;;;0.52;;
55254;SDS011;41118;44.634;11.182;2023-03-09T03:32:10;3.80;;;0.60;;
55254;SDS011;41118;44.634;11.182;2023-03-09T03:34:36;3.15;;;0.70;;
55254;SDS011;41118;44.634;11.182;2023-03-09T03:37:02;8.20;;;0.70;;
55254;SDS011;41118;44.634;11.182;2023-03-09T03:39:29;1.77;;;0.90;;
55254;SDS011;41118;44.634;11.182;2023-03-09T03:41:55;2.78;;;0.50;;
55254;SDS011;41118;44.634;11.182;2023-03-09T03:44:22;4.38;;;0.40;;
55254;SDS011;41118;44.634;11.182;2023-03-09T03:46:48;3.80;;;0.47;;
55254;SDS011;41118;44.634;11.182;2023-03-09T03:49:14;5.00;;;0.50;;
55254;SDS011;41118;44.634;11.182;2023-03-09T03:51:40;2.10;;;0.50;;
55254;SDS011;41118;44.634;11.182;2023-03-09T03:54:06;1.15;;;0.60;;
55254;SDS011;41118;44.634;11.182;2023-03-09T03:56:32;6.55;;;0.70;;
55254;SDS011;41118;44.634;11.182;2023-03-09T03:58:59;2.80;;;0.43;;
55254;SDS011;41118;44.634;11.182;2023-03-09T04:01:25;4.55;;;0.60;;
55254;SDS011;41118;44.634;11.182;2023-03-09T04:03:51;2.85;;;0.40;;
55254;SDS011;41118;44.634;11.182;2023-03-09T04:06:18;2.63;;;0.40;;
55254;SDS011;41118;44.634;11.182;2023-03-09T04:08:44;2.88;;;0.40;;
55254;SDS011;41118;44.634;11.182;2023-03-09T04:11:10;1.38;;;0.40;;
55254;SDS011;41118;44.634;11.182;2023-03-09T04:13:36;3.22;;;0.40;;
55254;SDS011;41118;44.634;11.182;2023-03-09T04:16:02;2.80;;;0.50;;
55254;SDS011;41118;44.634;11.182;2023-03-09T04:18:28;1.80;;;0.50;;
55254;SDS011;41118;44.634;11.182;2023-03-09T04:20:54;4.05;;;1.48;;
55254;SDS011;41118;44.634;11.182;2023-03-09T04:23:21;6.45;;;0.40;;
55254;SDS011;41118;44.634;11.182;2023-03-09T04:25:56;2.60;;;0.43;;
55254;SDS011;41118;44.634;11.182;2023-03-09T04:28:23;2.17;;;0.40;;
55254;SDS011;41118;44.634;11.182;2023-03-09T04:30:49;3.30;;;0.47;;
55254;SDS011;41118;44.634;11.182;2023-03-09T04:33:16;4.72;;;0.32;;
55254;SDS011;41118;44.634;11.182;2023-03-09T04:35:42;3.83;;;0.30;;
55254;SDS011;41118;44.634;11.182;2023-03-09T04:38:08;1.95;;;0.30;;
55254;SDS011;41118;44.634;11.182;2023-03-09T04:40:34;6.53;;;0.60;;
55254;SDS011;41118;44.634;11.182;2023-03-09T04:43:01;2.25;;;0.30;;
55254;SDS011;41118;44.634;11.182;2023-03-09T04:45:27;3.10;;;0.60;;
55254;SDS011;41118;44.634;11.182;2023-03-09T04:47:53;9.02;;;0.40;;
55254;SDS011;41118;44.634;11.182;2023-03-09T04:50:19;2.85;;;0.50;;
55254;SDS011;41118;44.634;11.182;2023-03-09T04:52:46;4.22;;;0.50;;
55254;SDS011;41118;44.634;11.182;2023-03-09T04:55:12;1.55;;;0.30;;
55254;SDS011;41118;44.634;11.182;2023-03-09T04:57:38;2.13;;;0.52;;
55254;SDS011;41118;44.634;11.182;2023-03-09T05:00:05;5.03;;;0.70;;
55254;SDS011;41118;44.634;11.182;2023-03-09T05:02:34;3.00;;;0.88;;
55254;SDS011;41118;44.634;11.182;2023-03-09T05:05:01;6.25;;;0.75;;
55254;SDS011;41118;44.634;11.182;2023-03-09T05:07:27;1.50;;;0.40;;
55254;SDS011;41118;44.634;11.182;2023-03-09T05:09:53;1.38;;;0.28;;
55254;SDS011;41118;44.634;11.182;2023-03-09T05:12:20;3.15;;;0.30;;
55254;SDS011;41118;44.634;11.182;2023-03-09T05:14:46;3.80;;;0.40;;
55254;SDS011;41118;44.634;11.182;2023-03-09T05:17:13;2.22;;;0.32;;
55254;SDS011;41118;44.634;11.182;2023-03-09T05:19:39;3.15;;;0.73;;
55254;SDS011;41118;44.634;11.182;2023-03-09T05:22:06;2.78;;;0.50;;
55254;SDS011;41118;44.634;11.182;2023-03-09T05:24:32;9.00;;;0.50;;
55254;SDS011;41118;44.634;11.182;2023-03-09T05:26:58;2.15;;;0.28;;
55254;SDS011;41118;44.634;11.182;2023-03-09T05:29:24;2.42;;;0.40;;
55254;SDS011;41118;44.634;11.182;2023-03-09T05:31:50;2.47;;;0.50;;
55254;SDS011;41118;44.634;11.182;2023-03-09T05:34:16;4.28;;;0.65;;
55254;SDS011;41118;44.634;11.182;2023-03-09T05:36:42;3.17;;;0.70;;
55254;SDS011;41118;44.634;11.182;2023-03-09T05:39:08;3.00;;;0.70;;
55254;SDS011;41118;44.634;11.182;2023-03-09T05:41:35;5.53;;;0.90;;
55254;SDS011;41118;44.634;11.182;2023-03-09T05:44:01;6.32;;;1.35;;
55254;SDS011;41118;44.634;11.182;2023-03-09T05:46:27;5.68;;;1.20;;
55254;SDS011;41118;44.634;11.182;2023-03-09T05:48:54;6.82;;;0.98;;
55254;SDS011;41118;44.634;11.182;2023-03-09T05:51:20;9.57;;;1.52;;
55254;SDS011;41118;44.634;11.182;2023-03-09T05:53:46;5.85;;;0.60;;
55254;SDS011;41118;44.634;11.182;2023-03-09T05:56:13;3.05;;;1.40;;
55254;SDS011;41118;44.634;11.182;2023-03-09T05:58:39;6.53;;;1.25;;
55254;SDS011;41118;44.634;11.182;2023-03-09T06:01:07;6.35;;;0.70;;
55254;SDS011;41118;44.634;11.182;2023-03-09T06:03:40;2.72;;;0.90;;
55254;SDS011;41118;44.634;11.182;2023-03-09T06:06:07;3.45;;;1.30;;
55254;SDS011;41118;44.634;11.182;2023-03-09T06:08:33;2.83;;;0.80;;
55254;SDS011;41118;44.634;11.182;2023-03-09T06:11:00;21.90;;;2.25;;
55254;SDS011;41118;44.634;11.182;2023-03-09T06:13:26;14.32;;;2.25;;
55254;SDS011;41118;44.634;11.182;2023-03-09T06:15:52;6.15;;;0.88;;
55254;SDS011;41118;44.634;11.182;2023-03-09T06:18:19;3.55;;;0.70;;
55254;SDS011;41118;44.634;11.182;2023-03-09T06:20:46;7.35;;;1.90;;
55254;SDS011;41118;44.634;11.182;2023-03-09T06:23:12;13.85;;;2.05;;
55254;SDS011;41118;44.634;11.182;2023-03-09T06:25:38;7.05;;;1.15;;
55254;SDS011;41118;44.634;11.182;2023-03-09T06:28:04;12.20;;;2.33;;
55254;SDS011;41118;44.634;11.182;2023-03-09T06:30:30;5.50;;;1.60;;
55254;SDS011;41118;44.634;11.182;2023-03-09T06:32:57;7.13;;;1.10;;
55254;SDS011;41118;44.634;11.182;2023-03-09T06:35:23;5.60;;;1.50;;
55254;SDS011;41118;44.634;11.182;2023-03-09T06:37:49;6.28;;;1.77;;
55254;SDS011;41118;44.634;11.182;2023-03-09T06:40:15;13.20;;;3.50;;
55254;SDS011;41118;44.634;11.182;2023-03-09T06:42:42;11.90;;;2.53;;
55254;SDS011;41118;44.634;11.182;2023-03-09T06:45:08;13.02;;;2.90;;
55254;SDS011;41118;44.634;11.182;2023-03-09T06:47:34;13.63;;;3.50;;
55254;SDS011;41118;44.634;11.182;2023-03-09T06:50:01;18.63;;;5.22;;
55254;SDS011;41118;44.634;11.182;2023-03-09T06:52:27;12.20;;;3.92;;
55254;SDS011;41118;44.634;11.182;2023-03-09T06:54:53;13.82;;;4.45;;
55254;SDS011;41118;44.634;11.182;2023-03-09T06:57:19;12.07;;;3.78;;
55254;SDS011;41118;44.634;11.182;2023-03-09T06:59:45;14.02;;;6.13;;
55254;SDS011;41118;44.634;11.182;2023-03-09T07:02:11;10.23;;;3.90;;
55254;SDS011;41118;44.634;11.182;2023-03-09T07:04:38;10.68;;;2.58;;
55254;SDS011;41118;44.634;11.182;2023-03-09T07:07:04;9.75;;;4.78;;
55254;SDS011;41118;44.634;11.182;2023-03-09T07:09:30;15.38;;;5.07;;
55254;SDS011;41118;44.634;11.182;2023-03-09T07:11:57;12.38;;;5.30;;
55254;SDS011;41118;44.634;11.182;2023-03-09T07:14:24;16.15;;;5.15;;
55254;SDS011;41118;44.634;11.182;2023-03-09T07:16:53;10.68;;;5.40;;
55254;SDS011;41118;44.634;11.182;2023-03-09T07:19:19;11.40;;;4.65;;
55254;SDS011;41118;44.634;11.182;2023-03-09T07:21:46;11.23;;;4.47;;
55254;SDS011;41118;44.634;11.182;2023-03-09T07:24:12;11.73;;;4.82;;
55254;SDS011;41118;44.634;11.182;2023-03-09T07:26:39;10.65;;;4.55;;
55254;SDS011;41118;44.634;11.182;2023-03-09T07:29:05;13.82;;;5.88;;
55254;SDS011;41118;44.634;11.182;2023-03-09T07:31:32;16.73;;;5.22;;
55254;SDS011;41118;44.634;11.182;2023-03-09T07:33:58;15.40;;;5.22;;
55254;SDS011;41118;44.634;11.182;2023-03-09T07:36:24;13.00;;;3.95;;
55254;SDS011;41118;44.634;11.182;2023-03-09T07:38:51;18.20;;;4.75;;
55254;SDS011;41118;44.634;11.182;2023-03-09T07:41:17;18.02;;;4.95;;
55254;SDS011;41118;44.634;11.182;2023-03-09T07:43:43;16.90;;;5.72;;
55254;SDS011;41118;44.634;11.182;2023-03-09T07:46:13;14.07;;;3.95;;
55254;SDS011;41118;44.634;11.182;2023-03-09T07:48:41;15.48;;;3.65;;
55254;SDS011;41118;44.634;11.182;2023-03-09T07:51:07;9.65;;;2.75;;
55254;SDS011;41118;44.634;11.182;2023-03-09T07:53:34;11.63;;;2.53;;
55254;SDS011;41118;44.634;11.182;2023-03-09T07:56:01;8.15;;;1.67;;
55254;SDS011;41118;44.634;11.182;2023-03-09T07:58:29;8.55;;;2.25;;
55254;SDS011;41118;44.634;11.182;2023-03-09T08:00:55;6.13;;;1.17;;
55254;SDS011;41118;44.634;11.182;2023-03-09T08:03:21;8.73;;;0.90;;
55254;SDS011;41118;44.634;11.182;2023-03-09T08:05:48;5.15;;;2.28;;
55254;SDS011;41118;44.634;11.182;2023-03-09T08:08:24;7.28;;;2.15;;
55254;SDS011;41118;44.634;11.182;2023-03-09T08:10:53;7.32;;;1.33;;
55254;SDS011;41118;44.634;11.182;2023-03-09T08:13:20;5.30;;;1.17;;
55254;SDS011;41118;44.634;11.182;2023-03-09T08:15:47;9.15;;;2.30;;
55254;SDS011;41118;44.634;11.182;2023-03-09T08:18:13;10.52;;;2.22;;
55254;SDS011;41118;44.634;11.182;2023-03-09T08:20:40;9.15;;;1.92;;
55254;SDS011;41118;44.634;11.182;2023-03-09T08:23:06;6.18;;;1.10;;
55254;SDS011;41118;44.634;11.182;2023-03-09T08:25:33;6.72;;;1.27;;
55254;SDS011;41118;44.634;11.182;2023-03-09T08:27:59;8.07;;;2.35;;
55254;SDS011;41118;44.634;11.182;2023-03-09T08:30:25;4.85;;;1.02;;
55254;SDS011;41118;44.634;11.182;2023-03-09T08:32:52;7.30;;;2.08;;
55254;SDS011;41118;44.634;11.182;2023-03-09T08:35:20;5.50;;;1.00;;
55254;SDS011;41118;44.634;11.182;2023-03-09T08:37:46;4.85;;;1.33;;
55254;SDS011;41118;44.634;11.182;2023-03-09T08:40:14;4.75;;;1.30;;
55254;SDS011;41118;44.634;11.182;2023-03-09T08:42:40;7.22;;;1.00;;
55254;SDS011;41118;44.634;11.182;2023-03-09T08:45:06;9.30;;;1.38;;
55254;SDS011;41118;44.634;11.182;2023-03-09T08:47:33;3.25;;;0.70;;
55254;SDS011;41118;44.634;11.182;2023-03-09T08:49:59;3.28;;;0.70;;
55254;SDS011;41118;44.634;11.182;2023-03-09T08:52:25;3.78;;;1.50;;
55254;SDS011;41118;44.634;11.182;2023-03-09T08:54:51;4.03;;;0.98;;
55254;SDS011;41118;44.634;11.182;2023-03-09T08:57:17;2.67;;;0.85;;
55254;SDS011;41118;44.634;11.182;2023-03-09T08:59:46;3.95;;;0.60;;
55254;SDS011;41118;44.634;11.182;2023-03-09T09:02:13;3.92;;;0.80;;
55254;SDS011;41118;44.634;11.182;2023-03-09T09:04:43;7.72;;;0.73;;
55254;SDS011;41118;44.634;11.182;2023-03-09T09:07:09;5.47;;;0.60;;
55254;SDS011;41118;44.634;11.182;2023-03-09T09:09:36;5.05;;;0.60;;
55254;SDS011;41118;44.634;11.182;2023-03-09T09:12:02;5.43;;;1.05;;
55254;SDS011;41118;44.634;11.182;2023-03-09T09:14:28;8.23;;;0.70;;
55254;SDS011;41118;44.634;11.182;2023-03-09T09:16:54;5.57;;;0.40;;
55254;SDS011;41118;44.634;11.182;2023-03-09T09:19:21;5.07;;;1.05;;
55254;SDS011;41118;44.634;11.182;2023-03-09T09:21:47;10.07;;;0.70;;
55254;SDS011;41118;44.634;11.182;2023-03-09T09:24:13;3.38;;;1.48;;
55254;SDS011;41118;44.634;11.182;2023-03-09T09:26:39;3.05;;;0.30;;
55254;SDS011;41118;44.634;11.182;2023-03-09T09:29:06;5.03;;;0.50;;
55254;SDS011;41118;44.634;11.182;2023-03-09T09:31:33;3.83;;;0.50;;
55254;SDS011;41118;44.634;11.182;2023-03-09T09:33:59;3.67;;;0.47;;
55254;SDS011;41118;44.634;11.182;2023-03-09T09:36:25;3.13;;;0.85;;
55254;SDS011;41118;44.634;11.182;2023-03-09T09:38:52;2.65;;;0.52;;
55254;SDS011;41118;44.634;11.182;2023-03-09T09:41:26;5.93;;;0.60;;
55254;SDS011;41118;44.634;11.182;2023-03-09T09:43:54;2.78;;;0.60;;
55254;SDS011;41118;44.634;11.182;2023-03-09T09:46:22;4.18;;;0.93;;
55254;SDS011;41118;44.634;11.182;2023-03-09T09:48:49;4.40;;;1.58;;
55254;SDS011;41118;44.634;11.182;2023-03-09T10:04:37;7.03;;;1.40;;
55254;SDS011;41118;44.634;11.182;2023-03-09T10:07:16;7.93;;;0.70;;
55254;SDS011;41118;44.634;11.182;2023-03-09T10:09:43;5.05;;;1.25;;
55254;SDS011;41118;44.634;11.182;2023-03-09T10:12:14;7.30;;;2.80;;
55254;SDS011;41118;44.634;11.182;2023-03-09T10:14:42;3.50;;;1.13;;
55254;SDS011;41118;44.634;11.182;2023-03-09T10:19:37;6.00;;;1.65;;
55254;SDS011;41118;44.634;11.182;2023-03-09T10:24:38;5.95;;;1.05;;
55254;SDS011;41118;44.634;11.182;2023-03-09T10:29:57;4.47;;;1.67;;
55254;SDS011;41118;44.634;11.182;2023-03-09T10:32:28;4.72;;;1.80;;
55254;SDS011;41118;44.634;11.182;2023-03-09T10:37:49;7.95;;;1.67;;
55254;SDS011;41118;44.634;11.182;2023-03-09T10:40:19;13.95;;;3.53;;
55254;SDS011;41118;44.634;11.182;2023-03-09T10:42:46;3.70;;;0.90;;
55254;SDS011;41118;44.634;11.182;2023-03-09T10:50:20;5.30;;;0.90;;
55254;SDS011;41118;44.634;11.182;2023-03-09T10:52:48;8.35;;;1.15;;
55254;SDS011;41118;44.634;11.182;2023-03-09T10:55:21;8.75;;;0.88;;
55254;SDS011;41118;44.634;11.182;2023-03-09T10:57:56;4.65;;;0.70;;
55254;SDS011;41118;44.634;11.182;2023-03-09T11:00:23;6.65;;;1.05;;
55254;SDS011;41118;44.634;11.182;2023-03-09T11:02:54;6.72;;;1.08;;
55254;SDS011;41118;44.634;11.182;2023-03-09T11:07:48;9.15;;;1.17;;
55254;SDS011;41118;44.634;11.182;2023-03-09T11:10:28;3.40;;;0.98;;
55254;SDS011;41118;44.634;11.182;2023-03-09T11:12:55;8.15;;;1.33;;
55254;SDS011;41118;44.634;11.182;2023-03-09T11:15:32;5.13;;;0.60;;
55254;SDS011;41118;44.634;11.182;2023-03-09T11:17:59;5.97;;;0.50;;
55254;SDS011;41118;44.634;11.182;2023-03-09T11:20:27;6.25;;;0.68;;
55254;SDS011;41118;44.634;11.182;2023-03-09T11:22:58;7.20;;;0.75;;
55254;SDS011;41118;44.634;11.182;2023-03-09T11:30:55;12.88;;;0.90;;
55254;SDS011;41118;44.634;11.182;2023-03-09T11:33:22;6.55;;;0.82;;
55254;SDS011;41118;44.634;11.182;2023-03-09T11:35:51;11.10;;;0.60;;
55254;SDS011;41118;44.634;11.182;2023-03-09T11:38:18;2.30;;;0.43;;
55254;SDS011;41118;44.634;11.182;2023-03-09T11:40:45;5.57;;;0.50;;
55254;SDS011;41118;44.634;11.182;2023-03-09T11:43:28;6.30;;;0.75;;
55254;SDS011;41118;44.634;11.182;2023-03-09T11:45:57;4.75;;;0.55;;
55254;SDS011;41118;44.634;11.182;2023-03-09T11:48:31;5.88;;;1.05;;
55254;SDS011;41118;44.634;11.182;2023-03-09T11:53:33;3.63;;;0.82;;
55254;SDS011;41118;44.634;11.182;2023-03-09T11:58:37;3.58;;;0.85;;
55254;SDS011;41118;44.634;11.182;2023-03-09T12:01:23;5.57;;;1.38;;
55254;SDS011;41118;44.634;11.182;2023-03-09T12:04:12;6.97;;;1.10;;
55254;SDS011;41118;44.634;11.182;2023-03-09T12:09:04;9.95;;;1.83;;
55254;SDS011;41118;44.634;11.182;2023-03-09T12:11:34;12.60;;;1.67;;
55254;SDS011;41118;44.634;11.182;2023-03-09T12:17:02;6.03;;;1.85;;
55254;SDS011;41118;44.634;11.182;2023-03-09T12:19:29;9.18;;;2.08;;
55254;SDS011;41118;44.634;11.182;2023-03-09T12:22:03;9.30;;;2.58;;
55254;SDS011;41118;44.634;11.182;2023-03-09T12:24:34;11.40;;;1.55;;
55254;SDS011;41118;44.634;11.182;2023-03-09T12:27:02;5.30;;;0.70;;
55254;SDS011;41118;44.634;11.182;2023-03-09T12:34:55;7.57;;;1.40;;
55254;SDS011;41118;44.634;11.182;2023-03-09T12:42:44;6.85;;;1.17;;
55254;SDS011;41118;44.634;11.182;2023-03-09T12:47:41;4.80;;;0.65;;
55254;SDS011;41118;44.634;11.182;2023-03-09T12:50:37;6.10;;;0.60;;
55254;SDS011;41118;44.634;11.182;2023-03-09T13:00:55;8.80;;;0.90;;
55254;SDS011;41118;44.634;11.182;2023-03-09T13:03:23;7.72;;;0.50;;
55254;SDS011;41118;44.634;11.182;2023-03-09T13:05:54;7.90;;;0.82;;
55254;SDS011;41118;44.634;11.182;2023-03-09T13:08:26;7.47;;;1.80;;
55254;SDS011;41118;44.634;11.182;2023-03-09T13:13:39;7.25;;;0.90;;
55254;SDS011;41118;44.634;11.182;2023-03-09T13:18:52;3.92;;;0.68;;
55254;SDS011;41118;44.634;11.182;2023-03-09T13:21:43;3.72;;;0.80;;
55254;SDS011;41118;44.634;11.182;2023-03-09T13:24:13;7.10;;;1.00;;
55254;SDS011;41118;44.634;11.182;2023-03-09T13:26:41;10.10;;;0.63;;
55254;SDS011;41118;44.634;11.182;2023-03-09T13:29:08;3.17;;;0.40;;
55254;SDS011;41118;44.634;11.182;2023-03-09T13:31:34;7.00;;;0.40;;
55254;SDS011;41118;44.634;11.182;2023-03-09T13:34:01;3.42;;;0.40;;
55254;SDS011;41118;44.634;11.182;2023-03-09T13:36:28;6.57;;;0.80;;
55254;SDS011;41118;44.634;11.182;2023-03-09T13:38:57;6.13;;;0.70;;
55254;SDS011;41118;44.634;11.182;2023-03-09T13:41:26;4.40;;;0.50;;
55254;SDS011;41118;44.634;11.182;2023-03-09T13:43:53;8.68;;;1.25;;
55254;SDS011;41118;44.634;11.182;2023-03-09T13:46:27;4.35;;;1.15;;
55254;SDS011;41118;44.634;11.182;2023-03-09T13:48:56;6.47;;;1.83;;
55254;SDS011;41118;44.634;11.182;2023-03-09T13:53:55;10.90;;;1.65;;
55254;SDS011;41118;44.634;11.182;2023-03-09T13:56:21;5.70;;;1.70;;
55254;SDS011;41118;44.634;11.182;2023-03-09T13:58:47;7.00;;;1.50;;
55254;SDS011;41118;44.634;11.182;2023-03-09T14:03:50;10.20;;;0.75;;
55254;SDS011;41118;44.634;11.182;2023-03-09T14:06:22;4.30;;;0.50;;
55254;SDS011;41118;44.634;11.182;2023-03-09T14:08:52;4.82;;;0.82;;
55254;SDS011;41118;44.634;11.182;2023-03-09T14:11:22;5.50;;;0.60;;
55254;SDS011;41118;44.634;11.182;2023-03-09T14:13:50;8.27;;;0.70;;
55254;SDS011;41118;44.634;11.182;2023-03-09T14:16:19;4.55;;;0.45;;
55254;SDS011;41118;44.634;11.182;2023-03-09T14:18:53;6.22;;;1.08;;
55254;SDS011;41118;44.634;11.182;2023-03-09T14:21:29;2.90;;;0.50;;
55254;SDS011;41118;44.634;11.182;2023-03-09T14:26:45;3.75;;;0.40;;
55254;SDS011;41118;44.634;11.182;2023-03-09T14:34:38;5.68;;;0.30;;
55254;SDS011;41118;44.634;11.182;2023-03-09T14:37:13;8.45;;;0.60;;
55254;SDS011;41118;44.634;11.182;2023-03-09T14:39:41;3.08;;;0.50;;
55254;SDS011;41118;44.634;11.182;2023-03-09T14:47:00;4.93;;;0.35;;
55254;SDS011;41118;44.634;11.182;2023-03-09T14:49:26;6.43;;;0.30;;
55254;SDS011;41118;44.634;11.182;2023-03-09T14:51:52;2.95;;;0.30;;
55254;SDS011;41118;44.634;11.182;2023-03-09T14:54:18;2.00;;;0.30;;
55254;SDS011;41118;44.634;11.182;2023-03-09T14:56:44;1.83;;;0.30;;
55254;SDS011;41118;44.634;11.182;2023-03-09T14:59:17;3.78;;;0.30;;
55254;SDS011;41118;44.634;11.182;2023-03-09T15:01:52;3.53;;;0.30;;
55254;SDS011;41118;44.634;11.182;2023-03-09T15:04:19;5.28;;;0.45;;
55254;SDS011;41118;44.634;11.182;2023-03-09T15:06:46;1.70;;;0.30;;
55254;SDS011;41118;44.634;11.182;2023-03-09T15:09:14;1.95;;;0.30;;
55254;SDS011;41118;44.634;11.182;2023-03-09T15:11:40;2.20;;;0.20;;
55254;SDS011;41118;44.634;11.182;2023-03-09T15:14:10;2.42;;;0.28;;
55254;SDS011;41118;44.634;11.182;2023-03-09T15:16:39;8.32;;;0.30;;
55254;SDS011;41118;44.634;11.182;2023-03-09T15:19:08;0.93;;;0.25;;
55254;SDS011;41118;44.634;11.182;2023-03-09T15:21:36;5.25;;;0.30;;
55254;SDS011;41118;44.634;11.182;2023-03-09T15:24:02;4.35;;;0.30;;
55254;SDS011;41118;44.634;11.182;2023-03-09T15:26:28;2.58;;;0.20;;
55254;SDS011;41118;44.634;11.182;2023-03-09T15:28:54;4.40;;;0.20;;
55254;SDS011;41118;44.634;11.182;2023-03-09T15:31:20;5.30;;;0.32;;
55254;SDS011;41118;44.634;11.182;2023-03-09T15:33:46;2.13;;;0.22;;
55254;SDS011;41118;44.634;11.182;2023-03-09T15:36:12;3.97;;;0.20;;
55254;SDS011;41118;44.634;11.182;2023-03-09T15:38:38;3.22;;;0.20;;
55254;SDS011;41118;44.634;11.182;2023-03-09T15:41:05;2.25;;;0.20;;
55254;SDS011;41118;44.634;11.182;2023-03-09T15:43:32;2.30;;;0.45;;
55254;SDS011;41118;44.634;11.182;2023-03-09T15:46:01;2.65;;;0.20;;
55254;SDS011;41118;44.634;11.182;2023-03-09T15:48:27;4.65;;;0.30;;
55254;SDS011;41118;44.634;11.182;2023-03-09T15:50:53;7.68;;;0.95;;
55254;SDS011;41118;44.634;11.182;2023-03-09T15:53:19;1.92;;;0.35;;
55254;SDS011;41118;44.634;11.182;2023-03-09T15:55:54;3.03;;;0.20;;
55254;SDS011;41118;44.634;11.182;2023-03-09T15:58:20;1.50;;;0.20;;
55254;SDS011;41118;44.634;11.182;2023-03-09T16:00:47;4.45;;;0.30;;
55254;SDS011;41118;44.634;11.182;2023-03-09T16:03:13;4.40;;;0.35;;
55254;SDS011;41118;44.634;11.182;2023-03-09T16:05:39;2.15;;;0.30;;
55254;SDS011;41118;44.634;11.182;2023-03-09T16:08:05;1.80;;;0.30;;
55254;SDS011;41118;44.634;11.182;2023-03-09T16:10:31;1.17;;;0.28;;
55254;SDS011;41118;44.634;11.182;2023-03-09T16:12:57;3.55;;;0.30;;